Time;durP1;ratioP1;P1;durP2;ratioP2;P2;SDS_P1;SDS_P2;PMS_P1;PMS_P2;Temp;Humidity;BMP_temperature;BMP_pressure;BME280_temperature;BME280_humidity;BME280_pressure;Samples;Min_cycle;Max_cycle;Signal;HPM_P1;HPM_P2
2022/11/21 00:00:05;;;;;;;23.90;16.47;;;1.90;99.90;;;;;;5039968;28;20405;-74
2022/11/21 00:02:31;;;;;;;25.48;17.08;;;1.90;99.90;;;;;;5033669;28;20415;-74
2022/11/21 00:04:57;;;;;;;27.15;17.50;;;1.90;99.90;;;;;;5035522;28;20468;-74
2022/11/21 00:07:22;;;;;;;23.87;16.00;;;1.90;99.90;;;;;;5029242;28;20426;-74
2022/11/21 00:09:48;;;;;;;22.77;16.13;;;1.80;99.90;;;;;;5030679;28;20414;-74
2022/11/21 00:12:15;;;;;;;23.30;16.33;;;1.90;99.90;;;;;;5005507;28;20557;-74
2022/11/21 00:14:41;;;;;;;27.02;16.92;;;1.90;99.90;;;;;;5030346;28;20406;-74
2022/11/21 00:17:06;;;;;;;26.43;16.40;;;1.90;99.90;;;;;;5028736;28;20419;-74
2022/11/21 00:19:32;;;;;;;25.15;16.13;;;1.90;99.90;;;;;;5008552;28;20774;-74
2022/11/21 00:21:58;;;;;;;22.92;16.00;;;1.80;99.90;;;;;;5013571;28;20788;-74
2022/11/21 00:24:23;;;;;;;24.13;15.97;;;1.80;99.90;;;;;;4985916;28;20416;-74
2022/11/21 00:26:49;;;;;;;23.63;15.60;;;1.80;99.90;;;;;;5009317;28;20415;-74
2022/11/21 00:29:14;;;;;;;23.30;15.63;;;1.70;99.90;;;;;;5010248;28;20445;-74
2022/11/21 00:31:40;;;;;;;24.73;15.95;;;1.70;99.90;;;;;;4991408;28;20934;-74
2022/11/21 00:34:05;;;;;;;24.20;15.60;;;1.60;99.90;;;;;;5010229;28;20489;-74
2022/11/21 00:36:31;;;;;;;24.40;16.10;;;1.50;99.90;;;;;;5010045;28;20414;-74
2022/11/21 00:38:57;;;;;;;23.97;16.07;;;1.50;99.90;;;;;;5012199;28;20872;-74
2022/11/21 00:41:22;;;;;;;23.25;15.85;;;1.40;99.90;;;;;;5029403;28;20407;-74
2022/11/21 00:43:48;;;;;;;25.00;15.77;;;1.40;99.90;;;;;;5012054;28;20789;-74
2022/11/21 00:46:13;;;;;;;24.30;15.88;;;1.30;99.90;;;;;;4998709;28;20418;-74
2022/11/21 00:48:39;;;;;;;24.93;16.57;;;1.30;99.90;;;;;;5007128;28;20787;-74
2022/11/21 00:51:05;;;;;;;24.73;16.30;;;1.20;99.90;;;;;;5026047;28;20774;-74
2022/11/21 00:53:30;;;;;;;25.13;16.73;;;1.20;99.90;;;;;;5012366;28;20405;-74
2022/11/21 00:55:56;;;;;;;24.23;16.33;;;1.20;99.90;;;;;;5007075;28;20415;-74
2022/11/21 00:58:22;;;;;;;23.15;16.13;;;1.10;99.90;;;;;;5020432;28;20412;-74
2022/11/21 01:00:48;;;;;;;23.90;15.52;;;1.10;99.90;;;;;;5026221;28;20407;-74
2022/11/21 01:03:13;;;;;;;22.53;16.10;;;1.10;99.90;;;;;;5027673;28;20414;-74
2022/11/21 01:05:39;;;;;;;24.20;16.77;;;1.00;99.90;;;;;;4988815;28;20414;-74
2022/11/21 01:08:05;;;;;;;24.48;16.33;;;1.00;99.90;;;;;;5013851;28;20442;-74
2022/11/21 01:10:30;;;;;;;25.20;16.23;;;0.90;99.90;;;;;;5024986;28;20500;-74
2022/11/21 01:12:56;;;;;;;23.63;16.47;;;0.90;99.90;;;;;;5010010;28;20400;-74
2022/11/21 01:15:21;;;;;;;25.73;16.88;;;0.90;99.90;;;;;;5022604;28;20422;-74
2022/11/21 01:17:47;;;;;;;25.67;17.17;;;0.80;99.90;;;;;;5021154;28;20483;-73
2022/11/21 01:20:14;;;;;;;24.77;17.05;;;0.70;99.90;;;;;;4993640;28;20409;-74
2022/11/21 01:22:39;;;;;;;27.45;17.65;;;0.70;99.90;;;;;;5029223;28;20479;-73
2022/11/21 01:25:05;;;;;;;26.88;17.08;;;0.70;99.90;;;;;;5015318;28;20447;-73
2022/11/21 01:27:31;;;;;;;26.77;16.98;;;0.60;99.90;;;;;;5023937;28;20414;-74
2022/11/21 01:29:56;;;;;;;25.63;17.03;;;0.60;99.90;;;;;;5013862;28;20405;-73
2022/11/21 01:32:22;;;;;;;26.02;16.83;;;0.60;99.90;;;;;;5017352;28;20403;-74
2022/11/21 01:34:47;;;;;;;25.00;16.43;;;0.50;99.90;;;;;;5028285;28;20417;-74
2022/11/21 01:37:13;;;;;;;27.80;17.52;;;0.50;99.90;;;;;;5020629;28;20881;-74
2022/11/21 01:39:38;;;;;;;24.58;16.08;;;0.50;99.90;;;;;;5026159;28;20411;-74
2022/11/21 01:42:04;;;;;;;26.87;16.77;;;0.40;99.90;;;;;;5016256;28;20412;-73
2022/11/21 01:44:52;;;;;;;25.73;16.98;;;0.40;99.90;;;;;;5000824;28;21575;-74
2022/11/21 01:47:18;;;;;;;23.43;16.53;;;0.40;99.90;;;;;;5018057;28;20405;-74
2022/11/21 01:49:45;;;;;;;29.50;17.73;;;0.40;99.90;;;;;;5009728;28;20430;-74
2022/11/21 01:52:22;;;;;;;26.70;17.58;;;0.40;99.90;;;;;;4994407;28;20506;-74
2022/11/21 01:54:54;;;;;;;24.30;16.80;;;0.40;99.90;;;;;;5009183;28;20826;-73
2022/11/21 01:57:37;;;;;;;25.27;17.43;;;0.50;99.90;;;;;;4991128;28;20941;-74
2022/11/21 02:00:10;;;;;;;26.02;17.50;;;0.50;99.90;;;;;;5022460;28;20416;-74
2022/11/21 02:02:40;;;;;;;24.98;16.08;;;0.60;99.90;;;;;;5021492;28;20490;-74
2022/11/21 02:05:10;;;;;;;23.48;16.20;;;0.60;99.90;;;;;;5027314;28;20920;-74
2022/11/21 02:07:40;;;;;;;26.65;17.27;;;0.70;99.90;;;;;;5016391;28;20457;-74
2022/11/21 02:10:07;;;;;;;24.70;16.23;;;0.70;99.90;;;;;;5018970;28;20421;-73
2022/11/21 02:12:40;;;;;;;26.45;17.23;;;0.80;99.90;;;;;;5027419;28;21509;-74
2022/11/21 02:15:06;;;;;;;25.45;17.13;;;0.80;99.90;;;;;;5014926;28;20413;-74
2022/11/21 02:17:32;;;;;;;26.55;17.25;;;0.80;99.90;;;;;;4996064;28;20492;-74
2022/11/21 02:20:09;;;;;;;28.40;17.40;;;0.90;99.90;;;;;;5023172;28;20910;-74
2022/11/21 02:23:13;;;;;;;26.23;17.80;;;0.90;99.90;;;;;;5007398;28;20435;-74
2022/11/21 02:25:41;;;;;;;25.98;17.35;;;0.90;99.90;;;;;;5000060;28;20421;-74
2022/11/21 02:28:19;;;;;;;26.73;17.98;;;1.00;99.90;;;;;;5023880;28;20506;-74
2022/11/21 02:30:44;;;;;;;25.90;17.45;;;1.00;99.90;;;;;;5009645;28;20488;-74
2022/11/21 02:33:11;;;;;;;26.02;17.15;;;1.10;99.90;;;;;;5020316;28;20844;-74
2022/11/21 02:35:37;;;;;;;27.80;17.90;;;1.10;99.90;;;;;;5007524;28;20984;-74
2022/11/21 02:38:10;;;;;;;25.00;17.60;;;1.10;99.90;;;;;;5006642;28;20433;-74
2022/11/21 02:40:40;;;;;;;25.63;17.58;;;1.10;99.90;;;;;;5015747;28;20516;-73
2022/11/21 02:43:17;;;;;;;23.45;16.80;;;1.20;99.90;;;;;;5013327;28;20443;-73
2022/11/21 02:45:44;;;;;;;23.50;16.55;;;1.20;99.90;;;;;;5027775;28;20439;-73
2022/11/21 02:48:10;;;;;;;24.27;16.77;;;1.20;99.90;;;;;;5020287;28;20487;-73
2022/11/21 02:50:41;;;;;;;23.92;16.95;;;1.20;99.90;;;;;;5019874;28;20926;-74
2022/11/21 02:53:08;;;;;;;23.98;17.17;;;1.20;99.90;;;;;;5008625;28;20737;-73
2022/11/21 02:55:34;;;;;;;24.37;17.00;;;1.20;99.90;;;;;;5013595;28;20411;-73
2022/11/21 02:58:00;;;;;;;26.00;17.10;;;1.20;99.90;;;;;;5018815;28;20419;-73
2022/11/21 03:00:26;;;;;;;26.50;17.60;;;1.20;99.90;;;;;;5020334;28;20401;-73
2022/11/21 03:02:52;;;;;;;26.45;17.25;;;1.20;99.90;;;;;;5020839;28;20415;-74
2022/11/21 03:05:19;;;;;;;24.15;17.48;;;1.30;99.90;;;;;;5019408;28;20502;-73
2022/11/21 03:07:45;;;;;;;24.95;16.95;;;1.20;99.90;;;;;;5027025;28;20472;-73
2022/11/21 03:10:11;;;;;;;23.90;16.80;;;1.30;99.90;;;;;;5012619;28;20411;-74
2022/11/21 03:12:38;;;;;;;26.08;17.50;;;1.30;99.90;;;;;;5025190;28;20438;-73
2022/11/21 03:15:05;;;;;;;23.58;16.08;;;1.30;99.90;;;;;;5012467;28;20451;-74
2022/11/21 03:17:31;;;;;;;24.20;17.20;;;1.30;99.90;;;;;;5012808;28;20405;-73
2022/11/21 03:19:57;;;;;;;25.15;17.25;;;1.30;99.90;;;;;;5001352;28;20820;-73
2022/11/21 03:22:22;;;;;;;26.23;17.33;;;1.30;99.90;;;;;;5015573;28;20408;-74
2022/11/21 03:24:48;;;;;;;25.15;17.00;;;1.30;99.90;;;;;;5011326;28;20467;-73
2022/11/21 03:27:13;;;;;;;25.08;17.60;;;1.30;99.90;;;;;;5022890;28;20461;-74
2022/11/21 03:29:39;;;;;;;26.70;17.13;;;1.30;99.90;;;;;;5011133;28;20442;-74
2022/11/21 03:32:05;;;;;;;24.75;16.77;;;1.30;99.90;;;;;;5012420;28;20436;-74
2022/11/21 03:34:31;;;;;;;24.45;17.05;;;1.30;99.90;;;;;;5018438;28;20966;-73
2022/11/21 03:36:57;;;;;;;24.77;17.33;;;1.30;99.90;;;;;;5030752;28;20408;-74
2022/11/21 03:39:22;;;;;;;24.73;17.53;;;1.30;99.90;;;;;;5017642;28;20417;-74
2022/11/21 03:41:48;;;;;;;25.98;16.65;;;1.30;99.90;;;;;;5024206;28;20971;-73
2022/11/21 03:44:13;;;;;;;28.47;17.80;;;1.30;99.90;;;;;;5029826;28;20403;-74
2022/11/21 03:46:44;;;;;;;24.50;17.67;;;1.30;99.90;;;;;;5025576;28;20816;-73
2022/11/21 03:49:11;;;;;;;24.98;17.83;;;1.30;99.90;;;;;;5010209;28;20448;-74
2022/11/21 03:51:37;;;;;;;25.23;17.35;;;1.30;99.90;;;;;;5024050;28;20501;-72
2022/11/21 03:54:04;;;;;;;25.58;18.13;;;1.30;99.90;;;;;;5013383;28;20411;-72
2022/11/21 03:56:30;;;;;;;23.37;16.83;;;1.30;99.90;;;;;;5029191;28;20905;-73
2022/11/21 03:58:56;;;;;;;25.67;17.77;;;1.30;99.90;;;;;;5016811;28;20954;-74
2022/11/21 04:01:22;;;;;;;26.57;18.73;;;1.40;99.90;;;;;;5024583;28;20490;-73
2022/11/21 04:03:48;;;;;;;25.40;17.67;;;1.30;99.90;;;;;;5022413;28;20977;-72
2022/11/21 04:06:15;;;;;;;26.17;17.92;;;1.30;99.90;;;;;;5011583;28;20934;-72
2022/11/21 04:08:41;;;;;;;26.75;17.77;;;1.30;99.90;;;;;;5004948;28;20433;-73
2022/11/21 04:11:07;;;;;;;24.92;17.17;;;1.40;99.90;;;;;;5006678;28;20418;-73
2022/11/21 04:13:33;;;;;;;25.23;17.88;;;1.40;99.90;;;;;;5019042;28;20406;-73
2022/11/21 04:15:59;;;;;;;25.53;18.27;;;1.40;99.90;;;;;;5010937;28;20423;-72
2022/11/21 04:18:24;;;;;;;25.40;17.48;;;1.40;99.90;;;;;;5010946;28;21397;-72
2022/11/21 04:20:56;;;;;;;26.15;17.70;;;1.40;99.90;;;;;;5011718;28;20397;-72
2022/11/21 04:23:22;;;;;;;24.38;17.33;;;1.40;99.90;;;;;;4987039;28;20409;-73
2022/11/21 04:25:48;;;;;;;27.03;18.23;;;1.40;99.90;;;;;;4993235;28;20493;-73
2022/11/21 04:28:13;;;;;;;26.73;18.25;;;1.40;99.90;;;;;;5010931;28;20431;-72
2022/11/21 04:30:39;;;;;;;24.92;17.77;;;1.40;99.90;;;;;;5016490;28;20399;-73
2022/11/21 04:33:05;;;;;;;26.27;18.80;;;1.40;99.90;;;;;;4993349;28;20420;-72
2022/11/21 04:35:31;;;;;;;25.88;17.98;;;1.40;99.90;;;;;;4993472;28;20413;-73
2022/11/21 04:37:56;;;;;;;27.38;18.55;;;1.40;99.90;;;;;;5013119;28;20421;-73
2022/11/21 04:40:22;;;;;;;27.50;18.23;;;1.40;99.90;;;;;;5027426;28;20403;-73
2022/11/21 04:42:48;;;;;;;26.85;18.80;;;1.40;99.90;;;;;;5001350;28;20414;-72
2022/11/21 04:45:15;;;;;;;26.58;18.10;;;1.30;99.90;;;;;;5015817;28;20416;-73
2022/11/21 04:47:43;;;;;;;27.08;19.02;;;1.30;99.90;;;;;;4994854;28;20443;-73
2022/11/21 04:50:11;;;;;;;29.10;19.40;;;1.30;99.90;;;;;;5025601;28;20744;-72
2022/11/21 04:52:37;;;;;;;27.77;19.58;;;1.30;99.90;;;;;;4991932;28;20409;-73
2022/11/21 04:55:03;;;;;;;29.85;19.92;;;1.30;99.90;;;;;;5006713;28;20463;-72
2022/11/21 04:57:30;;;;;;;28.45;19.65;;;1.30;99.90;;;;;;5011656;28;20486;-73
2022/11/21 04:59:56;;;;;;;28.45;20.08;;;1.30;99.90;;;;;;4994497;28;20418;-73
2022/11/21 05:02:22;;;;;;;28.63;19.42;;;1.20;99.90;;;;;;5001205;28;20415;-73
2022/11/21 05:04:48;;;;;;;29.70;20.30;;;1.20;99.90;;;;;;5027849;28;20432;-72
2022/11/21 05:07:13;;;;;;;27.13;19.17;;;1.20;99.90;;;;;;5039214;28;20813;-75
2022/11/21 05:09:39;;;;;;;28.27;19.43;;;1.20;99.90;;;;;;5030631;28;20427;-72
2022/11/21 05:14:49;;;;;;;29.92;20.33;;;1.10;99.90;;;;;;5030916;28;20903;-73
2022/11/21 05:17:14;;;;;;;30.40;20.37;;;1.10;99.90;;;;;;5047906;28;20406;-73
2022/11/21 05:19:40;;;;;;;31.90;21.10;;;1.10;99.90;;;;;;5044669;28;20827;-72
2022/11/21 05:22:06;;;;;;;29.75;20.15;;;1.00;99.90;;;;;;5030562;28;20413;-72
2022/11/21 05:24:31;;;;;;;31.93;21.27;;;1.00;99.90;;;;;;5031502;28;20490;-72
2022/11/21 05:26:57;;;;;;;30.02;19.83;;;1.00;99.90;;;;;;5013979;28;20743;-72
2022/11/21 05:29:22;;;;;;;30.70;20.60;;;1.00;99.90;;;;;;5045761;28;20501;-73
2022/11/21 05:31:48;;;;;;;32.97;21.30;;;1.00;99.90;;;;;;5037501;28;20412;-72
2022/11/21 05:34:13;;;;;;;32.17;21.70;;;0.90;99.90;;;;;;5029393;28;20469;-73
2022/11/21 05:36:39;;;;;;;31.97;21.00;;;0.90;99.90;;;;;;5022533;28;20405;-73
2022/11/21 05:39:05;;;;;;;30.73;20.50;;;0.90;99.90;;;;;;5042852;28;20785;-73
2022/11/21 05:41:31;;;;;;;30.73;21.02;;;0.90;99.90;;;;;;5023202;28;20432;-74
2022/11/21 05:43:57;;;;;;;33.13;21.43;;;0.80;99.90;;;;;;5017461;28;20895;-73
2022/11/21 05:46:25;;;;;;;30.58;20.42;;;0.80;99.90;;;;;;5046582;28;20870;-72
2022/11/21 05:48:52;;;;;;;33.13;21.08;;;0.70;99.90;;;;;;5042128;28;20489;-74
2022/11/21 05:51:19;;;;;;;35.35;22.40;;;0.60;99.90;;;;;;5013988;28;20494;-73
2022/11/21 05:53:45;;;;;;;36.25;22.58;;;0.60;99.90;;;;;;5013235;28;20441;-73
2022/11/21 05:56:13;;;;;;;32.75;21.67;;;0.60;99.90;;;;;;5026952;28;20407;-72
2022/11/21 05:58:39;;;;;;;36.67;22.50;;;0.50;99.90;;;;;;5042145;28;20403;-73
2022/11/21 06:01:06;;;;;;;31.00;21.48;;;0.50;99.90;;;;;;5041057;28;20406;-74
2022/11/21 06:03:35;;;;;;;34.33;21.45;;;0.50;99.90;;;;;;5011156;28;20774;-73
2022/11/21 06:06:14;;;;;;;33.92;21.95;;;0.40;99.90;;;;;;5028195;28;20781;-73
2022/11/21 06:08:42;;;;;;;35.25;22.65;;;0.40;99.90;;;;;;5026834;28;20551;-73
2022/11/21 06:11:10;;;;;;;37.43;23.53;;;0.30;99.90;;;;;;5016555;28;20505;-75
2022/11/21 06:13:36;;;;;;;37.67;23.10;;;0.30;99.90;;;;;;5030278;28;20405;-75
2022/11/21 06:16:10;;;;;;;37.63;23.30;;;0.20;99.90;;;;;;5033921;28;20943;-73
2022/11/21 06:18:39;;;;;;;40.83;24.57;;;0.20;99.90;;;;;;5013962;28;20425;-74
2022/11/21 06:21:07;;;;;;;38.95;23.58;;;0.20;99.90;;;;;;5014669;28;20498;-74
2022/11/21 06:23:34;;;;;;;37.15;22.63;;;0.20;99.90;;;;;;5004205;28;20418;-74
2022/11/21 06:26:02;;;;;;;37.85;22.83;;;0.10;99.90;;;;;;5047575;28;20760;-74
2022/11/21 06:28:33;;;;;;;39.42;23.13;;;0.10;99.90;;;;;;5030055;28;20508;-74
2022/11/21 06:31:07;;;;;;;37.20;22.58;;;0.10;99.90;;;;;;5022403;28;20410;-74
2022/11/21 06:33:34;;;;;;;36.30;23.17;;;0.10;99.90;;;;;;5048138;28;20409;-74
2022/11/21 06:36:04;;;;;;;35.92;22.27;;;0.20;99.90;;;;;;5041367;28;20413;-75
2022/11/21 06:38:30;;;;;;;36.53;22.95;;;0.20;99.90;;;;;;5026897;28;20545;-75
2022/11/21 06:40:56;;;;;;;34.55;22.42;;;0.20;99.90;;;;;;5014997;28;20486;-74
2022/11/21 06:43:21;;;;;;;36.85;23.15;;;0.20;99.90;;;;;;5014896;28;20412;-75
2022/11/21 06:45:47;;;;;;;36.83;22.57;;;0.20;99.90;;;;;;5028714;28;20912;-75
2022/11/21 06:48:13;;;;;;;34.65;22.23;;;0.20;99.90;;;;;;5038818;28;20434;-75
2022/11/21 06:50:38;;;;;;;37.87;21.73;;;0.20;99.90;;;;;;4992875;28;20524;-74
2022/11/21 06:53:04;;;;;;;37.17;23.27;;;0.30;99.90;;;;;;5030275;28;20425;-74
2022/11/21 06:55:30;;;;;;;39.10;23.87;;;0.30;99.90;;;;;;4997464;28;20972;-74
2022/11/21 06:57:59;;;;;;;35.93;22.77;;;0.30;99.90;;;;;;5026083;28;20417;-74
2022/11/21 07:00:28;;;;;;;34.47;21.92;;;0.30;99.90;;;;;;5027050;28;20880;-74
2022/11/21 07:02:58;;;;;;;36.93;22.63;;;0.30;99.90;;;;;;5041540;28;20412;-74
2022/11/21 07:05:24;;;;;;;34.65;22.85;;;0.30;99.90;;;;;;5033728;28;20399;-74
2022/11/21 07:07:49;;;;;;;34.27;22.70;;;0.30;99.90;;;;;;5041786;28;20922;-74
2022/11/21 07:10:15;;;;;;;36.08;23.25;;;0.40;99.90;;;;;;5003600;28;20469;-74
2022/11/21 07:15:24;;;;;;;37.95;22.70;;;0.50;99.90;;;;;;5020148;28;20881;-74
2022/11/21 07:17:50;;;;;;;33.95;22.80;;;0.50;99.90;;;;;;5016197;28;20444;-74
2022/11/21 07:20:15;;;;;;;34.40;22.50;;;0.50;99.90;;;;;;5031147;28;20520;-74
2022/11/21 07:22:41;;;;;;;35.57;21.97;;;0.50;99.90;;;;;;5042104;28;20403;-74
2022/11/21 07:25:07;;;;;;;34.30;23.10;;;0.50;99.90;;;;;;5029164;28;20774;-73
2022/11/21 07:27:32;;;;;;;34.85;21.95;;;0.60;99.90;;;;;;5048813;28;20409;-74
2022/11/21 07:29:58;;;;;;;35.67;22.80;;;0.50;99.90;;;;;;5039530;28;20444;-74
2022/11/21 07:32:25;;;;;;;34.90;22.00;;;0.50;99.90;;;;;;5032272;28;20438;-74
2022/11/21 07:34:50;;;;;;;38.08;23.67;;;0.50;99.90;;;;;;5042030;28;20452;-74
2022/11/21 07:37:16;;;;;;;34.63;22.23;;;0.50;99.90;;;;;;5019412;28;20415;-74
2022/11/21 07:39:41;;;;;;;37.70;22.83;;;0.50;99.90;;;;;;5039772;28;20460;-74
2022/11/21 07:42:07;;;;;;;44.88;22.17;;;0.50;99.90;;;;;;5037047;28;20396;-74
2022/11/21 07:44:32;;;;;;;36.27;22.60;;;0.40;99.90;;;;;;5028721;28;20765;-74
2022/11/21 07:46:58;;;;;;;38.07;23.10;;;0.50;99.90;;;;;;5028650;28;20415;-74
2022/11/21 07:49:25;;;;;;;35.42;22.65;;;0.50;99.90;;;;;;5050832;28;20430;-74
2022/11/21 07:51:50;;;;;;;35.63;22.60;;;0.50;99.90;;;;;;5049656;28;20409;-74
2022/11/21 07:54:16;;;;;;;31.83;21.92;;;0.50;99.90;;;;;;5033607;28;20410;-74
2022/11/21 07:56:41;;;;;;;36.00;22.20;;;0.50;99.90;;;;;;5043400;28;20399;-74
2022/11/21 07:59:07;;;;;;;39.25;22.17;;;0.60;99.90;;;;;;5042667;28;20407;-73
2022/11/21 08:01:33;;;;;;;35.70;21.97;;;0.60;99.90;;;;;;5030746;28;20439;-73
2022/11/21 08:03:58;;;;;;;34.33;21.37;;;0.70;99.90;;;;;;5030545;28;20977;-73
2022/11/21 08:06:24;;;;;;;35.95;22.52;;;0.80;99.90;;;;;;5009171;28;20410;-74
2022/11/21 08:08:53;;;;;;;35.70;22.83;;;0.80;99.90;;;;;;5020745;28;20445;-74
2022/11/21 08:11:19;;;;;;;35.93;22.87;;;0.80;99.90;;;;;;5036613;28;20933;-74
2022/11/21 08:13:44;;;;;;;36.07;22.80;;;0.90;99.90;;;;;;5050334;28;20436;-73
2022/11/21 08:16:10;;;;;;;34.95;23.05;;;0.90;99.90;;;;;;5036646;28;20766;-73
2022/11/21 08:18:36;;;;;;;35.78;22.10;;;0.90;99.90;;;;;;5043918;28;20765;-74
2022/11/21 08:21:03;;;;;;;35.10;22.90;;;0.90;99.90;;;;;;5047824;28;20404;-74
2022/11/21 08:23:29;;;;;;;35.03;22.48;;;0.80;99.90;;;;;;5039192;28;20401;-74
2022/11/21 08:25:54;;;;;;;36.03;22.67;;;0.80;99.90;;;;;;5049512;28;20744;-74
2022/11/21 08:28:20;;;;;;;35.20;22.87;;;0.70;99.90;;;;;;5028549;28;20427;-74
2022/11/21 08:30:45;;;;;;;40.93;23.70;;;0.70;99.90;;;;;;5041927;28;20438;-74
2022/11/21 08:33:11;;;;;;;36.30;23.77;;;0.70;99.90;;;;;;5038528;28;20513;-74
2022/11/21 08:35:37;;;;;;;37.37;23.60;;;0.70;99.90;;;;;;5030835;28;20410;-74
2022/11/21 08:38:04;;;;;;;37.25;23.10;;;0.70;99.90;;;;;;5012903;28;20800;-74
2022/11/21 08:40:31;;;;;;;36.53;23.77;;;0.70;99.90;;;;;;5032575;28;20473;-74
2022/11/21 08:43:05;;;;;;;36.22;23.42;;;0.70;99.90;;;;;;5033314;28;20969;-74
2022/11/21 08:45:32;;;;;;;34.42;23.08;;;0.70;99.90;;;;;;5030957;28;20437;-74
2022/11/21 08:47:58;;;;;;;36.95;23.35;;;0.70;99.90;;;;;;5001937;28;20413;-74
2022/11/21 08:50:23;;;;;;;37.47;23.13;;;0.70;99.90;;;;;;5030005;28;20423;-74
2022/11/21 08:52:49;;;;;;;35.85;24.30;;;0.80;99.90;;;;;;5029437;28;20804;-73
2022/11/21 08:55:15;;;;;;;36.55;23.58;;;0.80;99.90;;;;;;5035764;28;20405;-72
2022/11/21 08:57:41;;;;;;;39.13;22.87;;;0.80;99.90;;;;;;5048940;28;20408;-72
2022/11/21 09:00:11;;;;;;;37.05;23.40;;;0.80;99.90;;;;;;5017062;28;20472;-72
2022/11/21 09:02:37;;;;;;;34.33;22.85;;;0.90;99.90;;;;;;4995581;28;20489;-72
2022/11/21 09:05:03;;;;;;;36.65;23.35;;;1.00;99.90;;;;;;5029218;28;20403;-72
2022/11/21 09:07:30;;;;;;;35.17;22.85;;;1.10;99.90;;;;;;5007873;28;20823;-72
2022/11/21 09:09:55;;;;;;;35.85;22.65;;;1.30;99.90;;;;;;5021859;28;20471;-72
2022/11/21 09:12:21;;;;;;;36.17;23.40;;;1.40;99.90;;;;;;5002411;28;20413;-72
2022/11/21 09:20:15;;;;;;;37.47;23.25;;;1.60;99.90;;;;;;5005637;28;20435;-72
2022/11/21 09:22:41;;;;;;;32.20;22.58;;;1.70;99.90;;;;;;5003555;28;20399;-72
2022/11/21 09:25:06;;;;;;;34.77;23.10;;;1.70;99.90;;;;;;5027025;28;20410;-72
2022/11/21 09:27:32;;;;;;;33.55;22.83;;;1.70;99.90;;;;;;5017109;28;20423;-72
2022/11/21 09:29:58;;;;;;;31.67;21.30;;;1.70;99.90;;;;;;5009006;28;20443;-72
2022/11/21 09:32:24;;;;;;;33.40;22.60;;;1.80;99.90;;;;;;5023240;28;20414;-72
2022/11/21 09:34:49;;;;;;;32.37;21.70;;;1.80;99.90;;;;;;5020629;28;20455;-72
2022/11/21 09:37:15;;;;;;;34.05;22.20;;;1.80;99.90;;;;;;4994574;28;20424;-72
2022/11/21 09:39:40;;;;;;;33.40;22.23;;;1.90;99.90;;;;;;4990704;28;20946;-72
2022/11/21 09:42:51;;;;;;;31.08;21.42;;;1.90;99.90;;;;;;5026829;28;20406;-72
2022/11/21 09:45:26;;;;;;;35.10;22.67;;;2.00;99.90;;;;;;5008778;28;20491;-72
2022/11/21 09:47:52;;;;;;;31.17;21.00;;;2.00;99.90;;;;;;5008939;28;20486;-72
2022/11/21 09:50:26;;;;;;;30.83;21.50;;;2.10;99.90;;;;;;4975116;28;20912;-72
2022/11/21 09:52:59;;;;;;;31.23;21.17;;;2.20;99.90;;;;;;5008759;28;20428;-72
2022/11/21 09:55:33;;;;;;;31.55;21.30;;;2.30;99.90;;;;;;5007427;28;20426;-72
2022/11/21 09:58:24;;;;;;;33.58;22.20;;;2.30;99.90;;;;;;5020963;28;20467;-73
2022/11/21 10:00:51;;;;;;;31.88;21.42;;;2.30;99.90;;;;;;4988280;28;20416;-72
2022/11/21 10:03:20;;;;;;;31.08;21.83;;;2.40;99.90;;;;;;5003741;28;20420;-73
2022/11/21 10:05:53;;;;;;;32.75;21.63;;;2.40;99.90;;;;;;5010635;28;20461;-73
2022/11/21 10:08:34;;;;;;;30.52;21.20;;;2.50;99.90;;;;;;5009214;28;20787;-73
2022/11/21 10:11:19;;;;;;;30.35;20.65;;;2.50;99.90;;;;;;5009055;28;20491;-73
2022/11/21 10:14:10;;;;;;;29.20;20.02;;;2.50;99.90;;;;;;4997477;28;20415;-73
2022/11/21 10:16:55;;;;;;;30.08;20.25;;;2.60;99.90;;;;;;5013433;28;20407;-73
2022/11/21 10:19:39;;;;;;;28.92;19.00;;;2.60;99.90;;;;;;5008374;28;20429;-73
2022/11/21 10:22:37;;;;;;;26.20;18.90;;;2.70;99.90;;;;;;4991089;28;20421;-73
2022/11/21 10:25:17;;;;;;;26.17;17.90;;;2.70;99.90;;;;;;5020574;28;20416;-73
2022/11/21 10:27:48;;;;;;;25.40;17.83;;;2.90;99.90;;;;;;5012188;28;20413;-72
2022/11/21 10:30:18;;;;;;;25.05;17.90;;;3.00;99.90;;;;;;5007993;28;21010;-72
2022/11/21 10:32:47;;;;;;;26.05;18.35;;;3.10;99.90;;;;;;5021047;28;20459;-73
2022/11/21 10:35:25;;;;;;;23.75;17.20;;;3.20;99.90;;;;;;5019573;28;20407;-73
2022/11/21 10:37:53;;;;;;;24.75;18.27;;;3.30;99.90;;;;;;5008710;28;20413;-72
2022/11/21 10:40:32;;;;;;;23.73;17.30;;;3.40;99.90;;;;;;4991488;28;20471;-72
2022/11/21 10:46:00;;;;;;;24.35;17.35;;;3.50;99.90;;;;;;5013909;28;21111;-72
2022/11/21 10:48:26;;;;;;;26.13;17.88;;;3.50;99.90;;;;;;5027886;28;20435;-73
2022/11/21 10:51:12;;;;;;;28.50;18.17;;;3.50;99.90;;;;;;5004073;28;20899;-73
2022/11/21 10:56:25;;;;;;;24.48;17.48;;;3.60;99.90;;;;;;5008227;28;20413;-72
2022/11/21 10:58:56;;;;;;;23.40;17.30;;;3.60;99.90;;;;;;5027200;28;20392;-73
2022/11/21 11:01:28;;;;;;;23.45;17.45;;;3.70;99.90;;;;;;5026609;28;20411;-73
2022/11/21 11:04:09;;;;;;;22.77;16.67;;;3.80;99.90;;;;;;5003364;28;20415;-73
2022/11/21 11:06:40;;;;;;;23.23;17.05;;;4.00;99.90;;;;;;5029592;28;20792;-72
2022/11/21 11:09:20;;;;;;;21.88;16.17;;;4.30;99.90;;;;;;5007155;28;20436;-73
2022/11/21 11:11:46;;;;;;;22.42;16.30;;;4.80;99.90;;;;;;5003267;28;20445;-73
2022/11/21 11:14:13;;;;;;;22.08;16.75;;;4.90;99.90;;;;;;5027822;28;20900;-72
2022/11/21 11:16:45;;;;;;;21.67;16.05;;;4.90;99.90;;;;;;5026618;28;20407;-72
2022/11/21 11:19:18;;;;;;;23.37;16.83;;;4.80;99.90;;;;;;5021822;28;20454;-73
2022/11/21 11:21:45;;;;;;;22.90;16.67;;;4.70;99.90;;;;;;5014419;28;20411;-73
2022/11/21 11:24:10;;;;;;;21.60;16.40;;;4.70;99.90;;;;;;5013556;28;20412;-73
2022/11/21 11:26:50;;;;;;;20.87;15.80;;;4.60;99.90;;;;;;5026844;28;20421;-73
2022/11/21 11:29:21;;;;;;;20.52;15.70;;;4.50;99.90;;;;;;5012772;28;20811;-73
2022/11/21 11:31:58;;;;;;;20.98;15.88;;;4.40;99.90;;;;;;5028001;28;20419;-72
2022/11/21 11:34:37;;;;;;;21.27;16.00;;;4.40;99.90;;;;;;5025564;28;20488;-73
2022/11/21 11:37:10;;;;;;;21.63;15.93;;;4.40;99.90;;;;;;5011434;28;20401;-73
2022/11/21 11:39:42;;;;;;;21.50;15.70;;;4.50;99.90;;;;;;5011629;28;20462;-73
2022/11/21 11:48:46;;;;;;;21.67;16.07;;;4.40;99.90;;;;;;5016199;28;20539;-72
2022/11/21 11:51:21;;;;;;;20.43;15.73;;;4.50;99.90;;;;;;5021729;28;20958;-73
2022/11/21 11:53:52;;;;;;;21.27;15.63;;;4.50;99.90;;;;;;5013866;28;20758;-73
2022/11/21 11:56:28;;;;;;;19.35;14.68;;;4.50;99.90;;;;;;5029828;28;20776;-73
2022/11/21 11:59:11;;;;;;;20.63;15.20;;;4.50;99.90;;;;;;5029492;28;20446;-73
2022/11/21 12:01:59;;;;;;;23.08;16.27;;;4.60;99.90;;;;;;5026094;28;20462;-73
2022/11/21 12:04:28;;;;;;;19.85;15.65;;;4.70;99.90;;;;;;4986135;28;20434;-73
2022/11/21 12:07:05;;;;;;;21.13;15.27;;;4.80;99.90;;;;;;5029401;28;20407;-72
2022/11/21 12:09:33;;;;;;;19.27;14.65;;;4.80;99.90;;;;;;5031189;28;20433;-73
2022/11/21 12:12:14;;;;;;;19.52;14.35;;;4.80;99.90;;;;;;5025832;28;20492;-73
2022/11/21 12:17:53;;;;;;;19.88;13.63;;;4.70;99.90;;;;;;5031080;28;20415;-72
2022/11/21 12:20:28;;;;;;;18.33;13.27;;;4.80;99.90;;;;;;5048162;28;20422;-72
2022/11/21 12:22:54;;;;;;;18.13;12.80;;;4.80;99.90;;;;;;5029318;28;20455;-73
2022/11/21 12:25:30;;;;;;;16.48;12.32;;;4.90;99.90;;;;;;5031545;28;20980;-73
2022/11/21 12:27:57;;;;;;;16.80;12.17;;;4.90;99.90;;;;;;5040982;28;20429;-72
2022/11/21 12:30:35;;;;;;;17.75;12.88;;;4.90;99.90;;;;;;5048815;28;20405;-72
2022/11/21 12:33:28;;;;;;;16.17;12.23;;;5.00;99.90;;;;;;5041931;28;20828;-74
2022/11/21 12:36:18;;;;;;;17.47;12.77;;;4.90;99.90;;;;;;5037887;28;20438;-72
2022/11/21 12:39:07;;;;;;;15.90;11.88;;;4.90;99.90;;;;;;5022574;28;20510;-72
2022/11/21 12:45:05;;;;;;;15.63;11.73;;;4.90;99.90;;;;;;5032231;28;20783;-72
2022/11/21 12:54:30;;;;;;;16.20;11.37;;;4.80;99.90;;;;;;5010716;28;20778;-72
2022/11/21 12:57:11;;;;;;;14.15;10.07;;;4.80;99.90;;;;;;5025917;28;20429;-73
2022/11/21 13:00:06;;;;;;;13.52;10.23;;;4.80;99.90;;;;;;5030477;28;20733;-72
2022/11/21 13:03:01;;;;;;;13.93;10.00;;;4.80;99.90;;;;;;5034666;28;20926;-72
2022/11/21 13:05:31;;;;;;;12.07;8.80;;;4.80;99.90;;;;;;5043775;28;20447;-72
2022/11/21 13:08:21;;;;;;;14.77;9.32;;;4.90;99.90;;;;;;5028356;28;20490;-72
2022/11/21 13:14:28;;;;;;;12.13;8.98;;;5.10;99.90;;;;;;5023268;28;20421;-72
2022/11/21 13:17:14;;;;;;;12.77;9.10;;;5.20;99.90;;;;;;5021702;28;20931;-73
2022/11/21 13:20:03;;;;;;;11.35;8.50;;;5.20;99.90;;;;;;5035555;28;20437;-73
2022/11/21 13:22:35;;;;;;;12.07;8.27;;;5.20;99.90;;;;;;5041431;28;21491;-72
2022/11/21 13:25:32;;;;;;;11.85;8.40;;;5.20;99.90;;;;;;5015400;28;20510;-72
2022/11/21 13:28:16;;;;;;;15.00;9.23;;;5.10;99.90;;;;;;4991948;28;20427;-72